Погода Присадына 2 недели

Минская область, Белоруссия

24 мая-05 июня
  • 24мая
    Сегодня
    +11°
    +24°
    Ясно и безоблачно
    ВремяПогодаТемператураВлажностьДавлениеВетер, м/сВероятность осадков
    00:00Облачно с прояснениями+17°C59 %753 мм1.8 м/с2 %
    03:00Облачно с прояснениями+15°C60 %753 мм1.6 м/с2 %
    06:00Облачно с прояснениями+13°C64 %754 мм1.5 м/с2 %
    09:00Ясно и безоблачно+17°C56 %755 мм2.2 м/с2 %
    12:00Ясно и безоблачно+21°C47 %755 мм2.9 м/с2 %
    15:00Ясно и безоблачно+24°C41 %755 мм3.1 м/с2 %
    18:00Ясно и безоблачно+23°C44 %754 мм2.8 м/с2 %
    21:00Ясно и безоблачно+20°C57 %754 мм1.6 м/с2 %
  • 25мая
    Суббота
    +10°
    +25°
    Практически безоблачно
    ВремяПогодаТемператураВлажностьДавлениеВетер, м/сВероятность осадков
    00:00Ясно и безоблачно+15°C62 %754 мм1.4 м/с2 %
    03:00Ясно и безоблачно+13°C66 %754 мм1.2 м/с2 %
    06:00Ясно и безоблачно+12°C72 %754 мм1.1 м/с2 %
    09:00Ясно и безоблачно+18°C62 %754 мм1.8 м/с2 %
    12:00Практически безоблачно+22°C50 %754 мм2.5 м/с2 %
    15:00Практически безоблачно+25°C40 %753 мм2.7 м/с1 %
    18:00Небольшая облачность+25°C43 %752 мм2.4 м/с10 %
    21:00Практически безоблачно+20°C68 %752 мм1.2 м/с2 %
  • 26мая
    Воскресенье
    +13°
    +26°
    Облачно с прояснениями
    ВремяПогодаТемператураВлажностьДавлениеВетер, м/сВероятность осадков
    00:00Практически безоблачно+16°C64 %753 мм1.2 м/с2 %
    03:00Ясно и безоблачно+13°C68 %753 мм0.7 м/с1 %
    06:00Ясно и безоблачно+12°C73 %753 мм0.4 м/с2 %
    09:00Облачно с прояснениями+18°C56 %753 мм0.7 м/с2 %
    12:00Облачно с прояснениями+23°C40 %753 мм1.6 м/с2 %
    15:00Облачно с прояснениями+25°C38 %753 мм1.7 м/с2 %
    18:00Ясно и безоблачно+25°C37 %752 мм2.0 м/с2 %
    21:00Ясно и безоблачно+21°C62 %752 мм0.8 м/с2 %
  • 27мая
    Понедельник
    +13°
    +27°
    Практически безоблачно
    ВремяПогодаТемператураВлажностьДавлениеВетер, м/сВероятность осадков
    00:00Ясно и безоблачно+16°C76 %752 мм0.4 м/с2 %
    03:00Ясно и безоблачно+14°C77 %752 мм0.2 м/с2 %
    06:00Ясно и безоблачно+14°C84 %753 мм0.2 м/с2 %
    09:00Ясно и безоблачно+20°C70 %753 мм0.7 м/с2 %
    12:00Ясно и безоблачно+24°C46 %753 мм2.1 м/с2 %
    15:00Практически безоблачно+26°C47 %753 мм2.1 м/с18 %
    18:00Небольшая облачность+26°C49 %752 мм2.0 м/с28 %
    21:00Практически безоблачно+22°C80 %752 мм0.9 м/с14 %
Мы используем cookies
Соглашаюсь